sensor_id;sensor_type;location;lat;lon;timestamp;P1;durP1;ratioP1;P2;durP2;ratioP2
13463;SDS011;6804;48.774;9.174;2023-04-07T00:00:19;8.10;;;6.30;;
13463;SDS011;6804;48.774;9.174;2023-04-07T00:02:48;7.00;;;6.33;;
13463;SDS011;6804;48.774;9.174;2023-04-07T00:05:16;8.60;;;7.03;;
13463;SDS011;6804;48.774;9.174;2023-04-07T00:07:46;6.73;;;5.93;;
13463;SDS011;6804;48.774;9.174;2023-04-07T00:10:14;8.13;;;7.27;;
13463;SDS011;6804;48.774;9.174;2023-04-07T00:12:42;6.77;;;6.07;;
13463;SDS011;6804;48.774;9.174;2023-04-07T00:15:12;9.67;;;6.10;;
13463;SDS011;6804;48.774;9.174;2023-04-07T00:17:42;8.33;;;6.27;;
13463;SDS011;6804;48.774;9.174;2023-04-07T00:20:10;8.33;;;6.03;;
13463;SDS011;6804;48.774;9.174;2023-04-07T00:22:38;6.57;;;5.93;;
13463;SDS011;6804;48.774;9.174;2023-04-07T00:25:05;8.43;;;6.17;;
13463;SDS011;6804;48.774;9.174;2023-04-07T00:27:33;6.23;;;5.40;;
13463;SDS011;6804;48.774;9.174;2023-04-07T00:30:05;8.40;;;5.67;;
13463;SDS011;6804;48.774;9.174;2023-04-07T00:32:33;5.83;;;4.83;;
13463;SDS011;6804;48.774;9.174;2023-04-07T00:35:06;6.83;;;4.97;;
13463;SDS011;6804;48.774;9.174;2023-04-07T00:37:33;5.67;;;4.83;;
13463;SDS011;6804;48.774;9.174;2023-04-07T00:40:01;7.07;;;5.37;;
13463;SDS011;6804;48.774;9.174;2023-04-07T00:42:31;6.77;;;6.00;;
13463;SDS011;6804;48.774;9.174;2023-04-07T00:44:59;7.97;;;5.93;;
13463;SDS011;6804;48.774;9.174;2023-04-07T00:47:28;6.50;;;5.90;;
13463;SDS011;6804;48.774;9.174;2023-04-07T00:49:55;5.63;;;4.93;;
13463;SDS011;6804;48.774;9.174;2023-04-07T00:52:23;5.87;;;5.27;;
13463;SDS011;6804;48.774;9.174;2023-04-07T00:54:57;6.30;;;4.73;;
13463;SDS011;6804;48.774;9.174;2023-04-07T00:57:25;7.43;;;6.00;;
13463;SDS011;6804;48.774;9.174;2023-04-07T00:59:53;5.90;;;5.30;;
13463;SDS011;6804;48.774;9.174;2023-04-07T01:02:27;6.93;;;5.53;;
13463;SDS011;6804;48.774;9.174;2023-04-07T01:05:07;7.37;;;5.33;;
13463;SDS011;6804;48.774;9.174;2023-04-07T01:07:39;6.23;;;5.63;;
13463;SDS011;6804;48.774;9.174;2023-04-07T01:10:15;7.50;;;5.23;;
13463;SDS011;6804;48.774;9.174;2023-04-07T01:12:51;6.30;;;5.60;;
13463;SDS011;6804;48.774;9.174;2023-04-07T01:15:29;7.17;;;5.43;;
13463;SDS011;6804;48.774;9.174;2023-04-07T01:18:00;5.83;;;5.23;;
13463;SDS011;6804;48.774;9.174;2023-04-07T01:20:38;6.67;;;5.10;;
13463;SDS011;6804;48.774;9.174;2023-04-07T01:23:09;5.93;;;4.90;;
13463;SDS011;6804;48.774;9.174;2023-04-07T01:25:53;6.43;;;5.70;;
13463;SDS011;6804;48.774;9.174;2023-04-07T01:32:01;6.27;;;5.13;;
13463;SDS011;6804;48.774;9.174;2023-04-07T01:34:32;5.83;;;5.23;;
13463;SDS011;6804;48.774;9.174;2023-04-07T01:37:00;5.90;;;5.30;;
13463;SDS011;6804;48.774;9.174;2023-04-07T01:39:28;5.83;;;5.23;;
13463;SDS011;6804;48.774;9.174;2023-04-07T01:41:56;5.70;;;5.03;;
13463;SDS011;6804;48.774;9.174;2023-04-07T01:44:26;5.93;;;5.33;;
13463;SDS011;6804;48.774;9.174;2023-04-07T01:46:54;6.17;;;5.43;;
13463;SDS011;6804;48.774;9.174;2023-04-07T01:49:24;7.87;;;5.57;;
13463;SDS011;6804;48.774;9.174;2023-04-07T01:51:57;6.20;;;5.40;;
13463;SDS011;6804;48.774;9.174;2023-04-07T01:54:29;5.93;;;5.33;;
13463;SDS011;6804;48.774;9.174;2023-04-07T01:56:59;6.50;;;5.53;;
13463;SDS011;6804;48.774;9.174;2023-04-07T01:59:29;7.57;;;5.90;;
13463;SDS011;6804;48.774;9.174;2023-04-07T02:01:57;6.00;;;5.23;;
13463;SDS011;6804;48.774;9.174;2023-04-07T02:04:27;5.87;;;5.03;;
13463;SDS011;6804;48.774;9.174;2023-04-07T02:07:00;7.33;;;4.80;;
13463;SDS011;6804;48.774;9.174;2023-04-07T02:09:33;5.90;;;5.30;;
13463;SDS011;6804;48.774;9.174;2023-04-07T02:12:04;5.83;;;5.10;;
13463;SDS011;6804;48.774;9.174;2023-04-07T02:14:34;5.77;;;5.17;;
13463;SDS011;6804;48.774;9.174;2023-04-07T02:17:02;6.47;;;5.77;;
13463;SDS011;6804;48.774;9.174;2023-04-07T02:19:31;6.63;;;5.90;;
13463;SDS011;6804;48.774;9.174;2023-04-07T02:22:00;6.17;;;5.57;;
13463;SDS011;6804;48.774;9.174;2023-04-07T02:24:31;6.73;;;5.40;;
13463;SDS011;6804;48.774;9.174;2023-04-07T02:26:59;6.97;;;5.87;;
13463;SDS011;6804;48.774;9.174;2023-04-07T02:29:29;5.67;;;5.00;;
13463;SDS011;6804;48.774;9.174;2023-04-07T02:31:58;6.53;;;5.70;;
13463;SDS011;6804;48.774;9.174;2023-04-07T02:34:28;7.17;;;5.70;;
13463;SDS011;6804;48.774;9.174;2023-04-07T02:36:59;5.90;;;5.23;;
13463;SDS011;6804;48.774;9.174;2023-04-07T02:39:29;6.57;;;5.23;;
13463;SDS011;6804;48.774;9.174;2023-04-07T02:41:57;7.10;;;6.00;;
13463;SDS011;6804;48.774;9.174;2023-04-07T02:44:24;5.77;;;5.17;;
13463;SDS011;6804;48.774;9.174;2023-04-07T02:46:51;6.83;;;5.90;;
13463;SDS011;6804;48.774;9.174;2023-04-07T02:49:18;6.23;;;5.60;;
13463;SDS011;6804;48.774;9.174;2023-04-07T02:51:46;6.13;;;5.53;;
13463;SDS011;6804;48.774;9.174;2023-04-07T02:54:19;6.90;;;5.20;;
13463;SDS011;6804;48.774;9.174;2023-04-07T02:56:49;6.93;;;5.90;;
13463;SDS011;6804;48.774;9.174;2023-04-07T02:59:17;5.70;;;5.10;;
13463;SDS011;6804;48.774;9.174;2023-04-07T03:01:50;7.07;;;5.73;;
13463;SDS011;6804;48.774;9.174;2023-04-07T03:04:18;6.17;;;5.57;;
13463;SDS011;6804;48.774;9.174;2023-04-07T03:06:47;5.80;;;5.20;;
13463;SDS011;6804;48.774;9.174;2023-04-07T03:09:15;8.13;;;5.70;;
13463;SDS011;6804;48.774;9.174;2023-04-07T03:11:44;6.33;;;5.60;;
13463;SDS011;6804;48.774;9.174;2023-04-07T03:14:11;8.50;;;5.73;;
13463;SDS011;6804;48.774;9.174;2023-04-07T03:16:38;6.60;;;5.90;;
13463;SDS011;6804;48.774;9.174;2023-04-07T03:19:08;9.03;;;6.03;;
13463;SDS011;6804;48.774;9.174;2023-04-07T03:21:38;7.43;;;6.10;;
13463;SDS011;6804;48.774;9.174;2023-04-07T03:24:10;7.83;;;5.77;;
13463;SDS011;6804;48.774;9.174;2023-04-07T03:26:38;6.93;;;5.53;;
13463;SDS011;6804;48.774;9.174;2023-04-07T03:29:07;5.60;;;5.10;;
13463;SDS011;6804;48.774;9.174;2023-04-07T03:31:37;6.33;;;5.73;;
13463;SDS011;6804;48.774;9.174;2023-04-07T03:34:04;9.93;;;6.40;;
13463;SDS011;6804;48.774;9.174;2023-04-07T03:36:31;6.20;;;5.40;;
13463;SDS011;6804;48.774;9.174;2023-04-07T03:39:01;8.03;;;6.60;;
13463;SDS011;6804;48.774;9.174;2023-04-07T03:41:29;7.50;;;6.80;;
13463;SDS011;6804;48.774;9.174;2023-04-07T03:43:56;8.20;;;6.03;;
13463;SDS011;6804;48.774;9.174;2023-04-07T03:46:34;7.70;;;6.77;;
13463;SDS011;6804;48.774;9.174;2023-04-07T03:49:01;6.37;;;5.73;;
13463;SDS011;6804;48.774;9.174;2023-04-07T03:51:34;6.07;;;5.47;;
13463;SDS011;6804;48.774;9.174;2023-04-07T03:54:01;7.70;;;6.17;;
13463;SDS011;6804;48.774;9.174;2023-04-07T03:56:29;6.23;;;5.37;;
13463;SDS011;6804;48.774;9.174;2023-04-07T03:58:57;6.53;;;5.90;;
13463;SDS011;6804;48.774;9.174;2023-04-07T04:01:24;6.43;;;5.67;;
13463;SDS011;6804;48.774;9.174;2023-04-07T04:03:53;7.23;;;5.80;;
13463;SDS011;6804;48.774;9.174;2023-04-07T04:06:20;7.47;;;6.17;;
13463;SDS011;6804;48.774;9.174;2023-04-07T04:08:48;7.70;;;5.87;;
13463;SDS011;6804;48.774;9.174;2023-04-07T04:11:15;6.50;;;5.70;;
13463;SDS011;6804;48.774;9.174;2023-04-07T04:13:42;6.57;;;5.00;;
13463;SDS011;6804;48.774;9.174;2023-04-07T04:16:15;6.77;;;5.63;;
13463;SDS011;6804;48.774;9.174;2023-04-07T04:18:42;5.87;;;5.37;;
13463;SDS011;6804;48.774;9.174;2023-04-07T04:21:14;6.67;;;5.33;;
13463;SDS011;6804;48.774;9.174;2023-04-07T04:23:41;7.50;;;5.77;;
13463;SDS011;6804;48.774;9.174;2023-04-07T04:26:10;7.10;;;5.87;;
13463;SDS011;6804;48.774;9.174;2023-04-07T04:28:38;8.50;;;6.33;;
13463;SDS011;6804;48.774;9.174;2023-04-07T04:31:05;8.87;;;6.30;;
13463;SDS011;6804;48.774;9.174;2023-04-07T04:33:32;6.43;;;5.80;;
13463;SDS011;6804;48.774;9.174;2023-04-07T04:35:59;7.50;;;5.63;;
13463;SDS011;6804;48.774;9.174;2023-04-07T04:38:35;8.00;;;6.00;;
13463;SDS011;6804;48.774;9.174;2023-04-07T04:41:02;7.37;;;5.40;;
13463;SDS011;6804;48.774;9.174;2023-04-07T04:43:32;12.63;;;6.10;;
13463;SDS011;6804;48.774;9.174;2023-04-07T04:46:03;6.43;;;5.83;;
13463;SDS011;6804;48.774;9.174;2023-04-07T04:48:30;7.30;;;5.60;;
13463;SDS011;6804;48.774;9.174;2023-04-07T04:51:00;8.90;;;5.77;;
13463;SDS011;6804;48.774;9.174;2023-04-07T04:53:30;5.70;;;5.10;;
13463;SDS011;6804;48.774;9.174;2023-04-07T04:56:07;7.80;;;6.13;;
13463;SDS011;6804;48.774;9.174;2023-04-07T04:58:34;6.50;;;5.90;;
13463;SDS011;6804;48.774;9.174;2023-04-07T05:01:03;7.13;;;5.77;;
13463;SDS011;6804;48.774;9.174;2023-04-07T05:03:30;7.03;;;5.40;;
13463;SDS011;6804;48.774;9.174;2023-04-07T05:05:58;6.60;;;5.90;;
13463;SDS011;6804;48.774;9.174;2023-04-07T05:08:25;6.10;;;5.50;;
13463;SDS011;6804;48.774;9.174;2023-04-07T05:10:55;6.40;;;5.70;;
13463;SDS011;6804;48.774;9.174;2023-04-07T05:13:24;7.47;;;5.97;;
13463;SDS011;6804;48.774;9.174;2023-04-07T05:15:51;8.40;;;6.47;;
13463;SDS011;6804;48.774;9.174;2023-04-07T05:18:19;7.07;;;6.07;;
13463;SDS011;6804;48.774;9.174;2023-04-07T05:20:47;7.40;;;5.50;;
13463;SDS011;6804;48.774;9.174;2023-04-07T05:23:14;6.90;;;6.10;;
13463;SDS011;6804;48.774;9.174;2023-04-07T05:25:45;8.33;;;5.70;;
13463;SDS011;6804;48.774;9.174;2023-04-07T05:28:15;5.77;;;5.27;;
13463;SDS011;6804;48.774;9.174;2023-04-07T05:30:43;6.90;;;5.93;;
13463;SDS011;6804;48.774;9.174;2023-04-07T05:33:11;8.90;;;6.10;;
13463;SDS011;6804;48.774;9.174;2023-04-07T05:35:40;7.23;;;5.83;;
13463;SDS011;6804;48.774;9.174;2023-04-07T05:38:12;6.00;;;5.40;;
13463;SDS011;6804;48.774;9.174;2023-04-07T05:40:42;6.63;;;5.93;;
13463;SDS011;6804;48.774;9.174;2023-04-07T05:43:09;6.90;;;6.20;;
13463;SDS011;6804;48.774;9.174;2023-04-07T05:45:36;6.60;;;5.90;;
13463;SDS011;6804;48.774;9.174;2023-04-07T05:48:05;6.90;;;5.60;;
13463;SDS011;6804;48.774;9.174;2023-04-07T05:50:32;6.70;;;6.00;;
13463;SDS011;6804;48.774;9.174;2023-04-07T05:53:00;6.47;;;5.87;;
13463;SDS011;6804;48.774;9.174;2023-04-07T05:55:27;7.30;;;5.97;;
13463;SDS011;6804;48.774;9.174;2023-04-07T05:57:54;7.13;;;6.17;;
13463;SDS011;6804;48.774;9.174;2023-04-07T06:00:21;6.40;;;5.37;;
13463;SDS011;6804;48.774;9.174;2023-04-07T06:02:51;7.40;;;5.33;;
13463;SDS011;6804;48.774;9.174;2023-04-07T06:05:26;5.87;;;5.27;;
13463;SDS011;6804;48.774;9.174;2023-04-07T06:07:56;7.83;;;5.70;;
13463;SDS011;6804;48.774;9.174;2023-04-07T06:10:26;6.67;;;5.63;;
13463;SDS011;6804;48.774;9.174;2023-04-07T06:12:53;6.67;;;5.57;;
13463;SDS011;6804;48.774;9.174;2023-04-07T06:15:22;6.33;;;5.53;;
13463;SDS011;6804;48.774;9.174;2023-04-07T06:17:50;6.47;;;5.83;;
13463;SDS011;6804;48.774;9.174;2023-04-07T06:20:17;7.93;;;5.53;;
13463;SDS011;6804;48.774;9.174;2023-04-07T06:22:47;7.57;;;6.00;;
13463;SDS011;6804;48.774;9.174;2023-04-07T06:25:16;6.23;;;5.50;;
13463;SDS011;6804;48.774;9.174;2023-04-07T06:27:46;10.97;;;6.10;;
13463;SDS011;6804;48.774;9.174;2023-04-07T06:30:16;7.43;;;5.77;;
13463;SDS011;6804;48.774;9.174;2023-04-07T06:32:43;7.17;;;6.40;;
13463;SDS011;6804;48.774;9.174;2023-04-07T06:35:14;7.23;;;5.83;;
13463;SDS011;6804;48.774;9.174;2023-04-07T06:37:44;8.43;;;6.10;;
13463;SDS011;6804;48.774;9.174;2023-04-07T06:40:17;7.37;;;6.13;;
13463;SDS011;6804;48.774;9.174;2023-04-07T06:42:45;8.07;;;6.77;;
13463;SDS011;6804;48.774;9.174;2023-04-07T06:45:12;7.07;;;6.37;;
13463;SDS011;6804;48.774;9.174;2023-04-07T06:47:40;7.37;;;6.37;;
13463;SDS011;6804;48.774;9.174;2023-04-07T06:50:07;8.30;;;5.90;;
13463;SDS011;6804;48.774;9.174;2023-04-07T06:52:38;7.67;;;6.50;;
13463;SDS011;6804;48.774;9.174;2023-04-07T06:55:08;8.07;;;6.27;;
13463;SDS011;6804;48.774;9.174;2023-04-07T06:57:37;7.83;;;5.97;;
13463;SDS011;6804;48.774;9.174;2023-04-07T07:00:05;6.47;;;5.70;;
13463;SDS011;6804;48.774;9.174;2023-04-07T07:02:36;7.17;;;5.90;;
13463;SDS011;6804;48.774;9.174;2023-04-07T07:05:06;7.17;;;6.47;;
13463;SDS011;6804;48.774;9.174;2023-04-07T07:07:33;7.73;;;6.53;;
13463;SDS011;6804;48.774;9.174;2023-04-07T07:10:03;6.37;;;5.67;;
13463;SDS011;6804;48.774;9.174;2023-04-07T07:12:33;7.40;;;6.60;;
13463;SDS011;6804;48.774;9.174;2023-04-07T07:15:02;7.30;;;6.47;;
13463;SDS011;6804;48.774;9.174;2023-04-07T07:17:31;6.93;;;6.20;;
13463;SDS011;6804;48.774;9.174;2023-04-07T07:19:58;7.97;;;6.37;;
13463;SDS011;6804;48.774;9.174;2023-04-07T07:22:25;8.90;;;7.43;;
13463;SDS011;6804;48.774;9.174;2023-04-07T07:24:53;10.57;;;7.37;;
13463;SDS011;6804;48.774;9.174;2023-04-07T07:27:20;7.80;;;6.53;;
13463;SDS011;6804;48.774;9.174;2023-04-07T07:29:47;7.00;;;6.30;;
13463;SDS011;6804;48.774;9.174;2023-04-07T07:32:16;10.87;;;6.70;;
13463;SDS011;6804;48.774;9.174;2023-04-07T07:34:44;6.87;;;6.17;;
13463;SDS011;6804;48.774;9.174;2023-04-07T07:37:19;7.20;;;6.50;;
13463;SDS011;6804;48.774;9.174;2023-04-07T07:39:48;8.83;;;6.70;;
13463;SDS011;6804;48.774;9.174;2023-04-07T07:42:16;6.80;;;6.10;;
13463;SDS011;6804;48.774;9.174;2023-04-07T07:44:43;7.23;;;6.20;;
13463;SDS011;6804;48.774;9.174;2023-04-07T07:47:11;7.23;;;6.53;;
13463;SDS011;6804;48.774;9.174;2023-04-07T07:49:39;7.37;;;6.53;;
13463;SDS011;6804;48.774;9.174;2023-04-07T07:52:06;8.17;;;6.53;;
13463;SDS011;6804;48.774;9.174;2023-04-07T07:54:35;9.10;;;6.40;;
13463;SDS011;6804;48.774;9.174;2023-04-07T07:57:04;7.83;;;6.77;;
13463;SDS011;6804;48.774;9.174;2023-04-07T07:59:32;6.90;;;6.20;;
13463;SDS011;6804;48.774;9.174;2023-04-07T08:01:59;8.77;;;6.70;;
13463;SDS011;6804;48.774;9.174;2023-04-07T08:04:26;13.93;;;10.90;;
13463;SDS011;6804;48.774;9.174;2023-04-07T08:06:55;8.20;;;5.93;;
13463;SDS011;6804;48.774;9.174;2023-04-07T08:09:23;6.83;;;5.90;;
13463;SDS011;6804;48.774;9.174;2023-04-07T08:11:50;7.93;;;6.10;;
13463;SDS011;6804;48.774;9.174;2023-04-07T08:14:19;7.50;;;6.00;;
13463;SDS011;6804;48.774;9.174;2023-04-07T08:16:49;8.07;;;6.00;;
13463;SDS011;6804;48.774;9.174;2023-04-07T08:19:20;6.67;;;5.97;;
13463;SDS011;6804;48.774;9.174;2023-04-07T08:21:48;7.60;;;5.90;;
13463;SDS011;6804;48.774;9.174;2023-04-07T08:24:19;5.70;;;5.10;;
13463;SDS011;6804;48.774;9.174;2023-04-07T08:26:47;6.60;;;5.47;;
13463;SDS011;6804;48.774;9.174;2023-04-07T08:29:14;6.73;;;5.60;;
13463;SDS011;6804;48.774;9.174;2023-04-07T08:31:41;6.20;;;5.60;;
13463;SDS011;6804;48.774;9.174;2023-04-07T08:34:11;5.63;;;5.13;;
13463;SDS011;6804;48.774;9.174;2023-04-07T08:36:39;6.20;;;5.60;;
13463;SDS011;6804;48.774;9.174;2023-04-07T08:39:06;6.37;;;5.23;;
13463;SDS011;6804;48.774;9.174;2023-04-07T08:41:38;8.47;;;5.73;;
13463;SDS011;6804;48.774;9.174;2023-04-07T08:44:10;5.77;;;5.27;;
13463;SDS011;6804;48.774;9.174;2023-04-07T08:46:40;5.87;;;5.17;;
13463;SDS011;6804;48.774;9.174;2023-04-07T08:49:11;5.67;;;5.17;;
13463;SDS011;6804;48.774;9.174;2023-04-07T08:51:42;6.70;;;5.10;;
13463;SDS011;6804;48.774;9.174;2023-04-07T08:54:12;6.10;;;5.20;;
13463;SDS011;6804;48.774;9.174;2023-04-07T08:56:42;6.87;;;5.40;;
13463;SDS011;6804;48.774;9.174;2023-04-07T08:59:10;5.87;;;5.27;;
13463;SDS011;6804;48.774;9.174;2023-04-07T09:01:39;5.73;;;4.93;;
13463;SDS011;6804;48.774;9.174;2023-04-07T09:04:07;6.10;;;5.50;;
13463;SDS011;6804;48.774;9.174;2023-04-07T09:06:36;5.90;;;5.10;;
13463;SDS011;6804;48.774;9.174;2023-04-07T09:09:05;5.07;;;4.53;;
13463;SDS011;6804;48.774;9.174;2023-04-07T09:11:34;5.70;;;5.10;;
13463;SDS011;6804;48.774;9.174;2023-04-07T09:14:03;7.63;;;5.40;;
13463;SDS011;6804;48.774;9.174;2023-04-07T09:16:31;8.17;;;5.17;;
13463;SDS011;6804;48.774;9.174;2023-04-07T09:18:59;6.27;;;5.30;;
13463;SDS011;6804;48.774;9.174;2023-04-07T09:24:19;6.00;;;5.40;;
13463;SDS011;6804;48.774;9.174;2023-04-07T09:26:49;6.83;;;4.60;;
13463;SDS011;6804;48.774;9.174;2023-04-07T09:29:20;5.90;;;4.80;;
13463;SDS011;6804;48.774;9.174;2023-04-07T09:31:48;5.77;;;5.07;;
13463;SDS011;6804;48.774;9.174;2023-04-07T09:34:23;5.30;;;4.80;;
13463;SDS011;6804;48.774;9.174;2023-04-07T09:36:51;5.87;;;3.50;;
13463;SDS011;6804;48.774;9.174;2023-04-07T09:39:18;6.53;;;5.00;;
13463;SDS011;6804;48.774;9.174;2023-04-07T09:41:46;5.43;;;4.57;;
13463;SDS011;6804;48.774;9.174;2023-04-07T09:44:13;5.33;;;4.40;;
13463;SDS011;6804;48.774;9.174;2023-04-07T09:46:48;4.90;;;4.40;;
13463;SDS011;6804;48.774;9.174;2023-04-07T09:49:17;5.37;;;4.17;;
13463;SDS011;6804;48.774;9.174;2023-04-07T09:51:52;5.63;;;4.20;;
13463;SDS011;6804;48.774;9.174;2023-04-07T09:54:33;5.17;;;4.03;;
13463;SDS011;6804;48.774;9.174;2023-04-07T09:57:02;5.73;;;4.50;;
13463;SDS011;6804;48.774;9.174;2023-04-07T09:59:34;5.63;;;4.60;;
13463;SDS011;6804;48.774;9.174;2023-04-07T10:02:04;10.53;;;7.13;;
13463;SDS011;6804;48.774;9.174;2023-04-07T10:04:33;7.17;;;5.00;;
13463;SDS011;6804;48.774;9.174;2023-04-07T10:07:04;6.87;;;5.43;;
13463;SDS011;6804;48.774;9.174;2023-04-07T10:09:32;5.83;;;5.20;;
13463;SDS011;6804;48.774;9.174;2023-04-07T10:11:59;5.57;;;4.63;;
13463;SDS011;6804;48.774;9.174;2023-04-07T10:14:29;7.60;;;4.67;;
13463;SDS011;6804;48.774;9.174;2023-04-07T10:17:03;6.27;;;4.50;;
13463;SDS011;6804;48.774;9.174;2023-04-07T10:19:32;7.93;;;4.73;;
13463;SDS011;6804;48.774;9.174;2023-04-07T10:22:01;7.33;;;4.70;;
13463;SDS011;6804;48.774;9.174;2023-04-07T10:24:34;4.90;;;4.47;;
13463;SDS011;6804;48.774;9.174;2023-04-07T10:27:13;5.93;;;5.30;;
13463;SDS011;6804;48.774;9.174;2023-04-07T10:29:44;6.40;;;4.80;;
13463;SDS011;6804;48.774;9.174;2023-04-07T10:32:15;5.43;;;4.17;;
13463;SDS011;6804;48.774;9.174;2023-04-07T10:34:55;4.80;;;4.30;;
13463;SDS011;6804;48.774;9.174;2023-04-07T10:37:25;6.30;;;4.80;;
13463;SDS011;6804;48.774;9.174;2023-04-07T10:42:53;7.90;;;5.00;;
13463;SDS011;6804;48.774;9.174;2023-04-07T10:48:25;5.87;;;4.40;;
13463;SDS011;6804;48.774;9.174;2023-04-07T11:02:40;6.23;;;5.00;;
13463;SDS011;6804;48.774;9.174;2023-04-07T11:05:21;6.13;;;4.90;;
13463;SDS011;6804;48.774;9.174;2023-04-07T11:07:52;6.70;;;4.53;;
13463;SDS011;6804;48.774;9.174;2023-04-07T11:10:22;6.07;;;4.47;;
13463;SDS011;6804;48.774;9.174;2023-04-07T11:12:59;5.80;;;4.43;;
13463;SDS011;6804;48.774;9.174;2023-04-07T11:15:28;5.23;;;3.90;;
13463;SDS011;6804;48.774;9.174;2023-04-07T11:18:05;7.07;;;4.53;;
13463;SDS011;6804;48.774;9.174;2023-04-07T11:20:55;4.57;;;3.77;;
13463;SDS011;6804;48.774;9.174;2023-04-07T11:23:24;4.73;;;4.00;;
13463;SDS011;6804;48.774;9.174;2023-04-07T11:25:58;4.90;;;4.33;;
13463;SDS011;6804;48.774;9.174;2023-04-07T11:28:28;4.30;;;3.60;;
13463;SDS011;6804;48.774;9.174;2023-04-07T11:30:56;4.50;;;4.10;;
13463;SDS011;6804;48.774;9.174;2023-04-07T11:33:24;5.03;;;3.87;;
13463;SDS011;6804;48.774;9.174;2023-04-07T11:35:55;5.33;;;3.43;;
13463;SDS011;6804;48.774;9.174;2023-04-07T11:38:24;6.73;;;4.33;;
13463;SDS011;6804;48.774;9.174;2023-04-07T11:40:55;7.03;;;4.50;;
13463;SDS011;6804;48.774;9.174;2023-04-07T11:43:26;5.17;;;4.00;;
13463;SDS011;6804;48.774;9.174;2023-04-07T11:46:06;7.77;;;4.40;;
13463;SDS011;6804;48.774;9.174;2023-04-07T11:48:36;6.20;;;4.30;;
13463;SDS011;6804;48.774;9.174;2023-04-07T11:51:15;5.33;;;4.53;;
13463;SDS011;6804;48.774;9.174;2023-04-07T11:53:45;5.70;;;4.27;;
13463;SDS011;6804;48.774;9.174;2023-04-07T11:56:14;5.93;;;4.57;;
13463;SDS011;6804;48.774;9.174;2023-04-07T11:58:46;6.03;;;4.40;;
13463;SDS011;6804;48.774;9.174;2023-04-07T12:01:17;6.47;;;4.10;;
13463;SDS011;6804;48.774;9.174;2023-04-07T12:03:55;6.47;;;4.03;;
13463;SDS011;6804;48.774;9.174;2023-04-07T12:06:28;7.07;;;5.23;;
13463;SDS011;6804;48.774;9.174;2023-04-07T12:08:59;6.97;;;4.80;;
13463;SDS011;6804;48.774;9.174;2023-04-07T12:11:27;6.23;;;4.90;;
13463;SDS011;6804;48.774;9.174;2023-04-07T12:13:54;5.57;;;5.07;;
13463;SDS011;6804;48.774;9.174;2023-04-07T12:16:24;6.07;;;4.97;;
13463;SDS011;6804;48.774;9.174;2023-04-07T12:18:53;6.13;;;4.70;;
13463;SDS011;6804;48.774;9.174;2023-04-07T12:21:31;6.20;;;4.63;;
13463;SDS011;6804;48.774;9.174;2023-04-07T12:24:01;6.40;;;3.83;;
13463;SDS011;6804;48.774;9.174;2023-04-07T12:26:32;7.13;;;4.60;;
13463;SDS011;6804;48.774;9.174;2023-04-07T12:28:59;6.90;;;4.70;;
13463;SDS011;6804;48.774;9.174;2023-04-07T12:31:29;4.73;;;4.17;;
13463;SDS011;6804;48.774;9.174;2023-04-07T12:33:57;5.90;;;5.10;;
13463;SDS011;6804;48.774;9.174;2023-04-07T12:36:26;5.33;;;3.97;;
13463;SDS011;6804;48.774;9.174;2023-04-07T12:38:58;4.80;;;3.97;;
13463;SDS011;6804;48.774;9.174;2023-04-07T12:41:26;4.17;;;3.77;;
13463;SDS011;6804;48.774;9.174;2023-04-07T12:43:53;4.33;;;3.93;;
13463;SDS011;6804;48.774;9.174;2023-04-07T12:46:21;3.57;;;2.97;;
13463;SDS011;6804;48.774;9.174;2023-04-07T12:48:49;4.10;;;2.83;;
13463;SDS011;6804;48.774;9.174;2023-04-07T12:51:17;3.10;;;2.43;;
13463;SDS011;6804;48.774;9.174;2023-04-07T12:53:49;3.63;;;2.30;;
13463;SDS011;6804;48.774;9.174;2023-04-07T12:56:19;2.60;;;2.30;;
13463;SDS011;6804;48.774;9.174;2023-04-07T12:58:47;3.40;;;2.60;;
13463;SDS011;6804;48.774;9.174;2023-04-07T13:01:17;3.70;;;2.80;;
13463;SDS011;6804;48.774;9.174;2023-04-07T13:03:50;5.90;;;3.33;;
13463;SDS011;6804;48.774;9.174;2023-04-07T13:06:17;3.33;;;3.03;;
13463;SDS011;6804;48.774;9.174;2023-04-07T13:08:45;3.27;;;2.67;;
13463;SDS011;6804;48.774;9.174;2023-04-07T13:11:13;2.30;;;2.10;;
13463;SDS011;6804;48.774;9.174;2023-04-07T13:13:42;2.73;;;2.10;;
13463;SDS011;6804;48.774;9.174;2023-04-07T13:16:09;3.03;;;2.27;;
13463;SDS011;6804;48.774;9.174;2023-04-07T13:18:36;4.40;;;2.57;;
13463;SDS011;6804;48.774;9.174;2023-04-07T13:21:04;4.03;;;3.10;;
13463;SDS011;6804;48.774;9.174;2023-04-07T13:23:31;3.30;;;3.00;;
13463;SDS011;6804;48.774;9.174;2023-04-07T13:25:58;3.67;;;3.00;;
13463;SDS011;6804;48.774;9.174;2023-04-07T13:28:26;3.60;;;2.77;;
13463;SDS011;6804;48.774;9.174;2023-04-07T13:30:58;3.47;;;2.93;;
13463;SDS011;6804;48.774;9.174;2023-04-07T13:33:28;4.67;;;2.73;;
13463;SDS011;6804;48.774;9.174;2023-04-07T13:35:55;3.33;;;2.20;;
13463;SDS011;6804;48.774;9.174;2023-04-07T13:38:26;3.17;;;2.53;;
13463;SDS011;6804;48.774;9.174;2023-04-07T13:40:57;2.90;;;2.60;;
13463;SDS011;6804;48.774;9.174;2023-04-07T13:43:24;2.87;;;2.20;;
13463;SDS011;6804;48.774;9.174;2023-04-07T13:45:51;2.80;;;2.20;;
13463;SDS011;6804;48.774;9.174;2023-04-07T13:48:21;2.93;;;2.30;;
13463;SDS011;6804;48.774;9.174;2023-04-07T13:50:51;2.93;;;2.20;;
13463;SDS011;6804;48.774;9.174;2023-04-07T13:53:21;4.00;;;2.20;;
13463;SDS011;6804;48.774;9.174;2023-04-07T13:55:49;3.27;;;2.40;;
13463;SDS011;6804;48.774;9.174;2023-04-07T13:58:19;3.40;;;2.40;;
13463;SDS011;6804;48.774;9.174;2023-04-07T14:00:49;2.97;;;2.10;;
13463;SDS011;6804;48.774;9.174;2023-04-07T14:03:17;4.30;;;2.40;;
13463;SDS011;6804;48.774;9.174;2023-04-07T14:05:53;3.37;;;2.30;;
13463;SDS011;6804;48.774;9.174;2023-04-07T14:08:24;4.00;;;2.00;;
13463;SDS011;6804;48.774;9.174;2023-04-07T14:10:52;3.00;;;2.07;;
13463;SDS011;6804;48.774;9.174;2023-04-07T14:13:20;2.77;;;2.00;;
13463;SDS011;6804;48.774;9.174;2023-04-07T14:15:48;4.37;;;2.77;;
13463;SDS011;6804;48.774;9.174;2023-04-07T14:18:21;3.87;;;2.60;;
13463;SDS011;6804;48.774;9.174;2023-04-07T14:20:49;2.47;;;2.27;;
13463;SDS011;6804;48.774;9.174;2023-04-07T14:23:18;2.83;;;2.47;;
13463;SDS011;6804;48.774;9.174;2023-04-07T14:25:46;4.63;;;2.70;;
13463;SDS011;6804;48.774;9.174;2023-04-07T14:28:16;3.53;;;2.77;;
13463;SDS011;6804;48.774;9.174;2023-04-07T14:30:44;4.13;;;2.63;;
13463;SDS011;6804;48.774;9.174;2023-04-07T14:33:12;3.93;;;2.60;;
13463;SDS011;6804;48.774;9.174;2023-04-07T14:35:41;3.03;;;2.70;;
13463;SDS011;6804;48.774;9.174;2023-04-07T14:38:10;3.50;;;3.00;;
13463;SDS011;6804;48.774;9.174;2023-04-07T14:40:39;3.83;;;2.83;;
13463;SDS011;6804;48.774;9.174;2023-04-07T14:43:07;5.50;;;3.33;;
13463;SDS011;6804;48.774;9.174;2023-04-07T14:45:34;3.27;;;2.80;;
13463;SDS011;6804;48.774;9.174;2023-04-07T14:48:01;4.10;;;2.67;;
13463;SDS011;6804;48.774;9.174;2023-04-07T14:50:30;3.20;;;2.43;;
13463;SDS011;6804;48.774;9.174;2023-04-07T14:53:01;4.50;;;3.00;;
13463;SDS011;6804;48.774;9.174;2023-04-07T14:55:29;4.80;;;3.00;;
13463;SDS011;6804;48.774;9.174;2023-04-07T14:58:01;7.43;;;4.27;;
13463;SDS011;6804;48.774;9.174;2023-04-07T15:00:28;7.10;;;3.87;;
13463;SDS011;6804;48.774;9.174;2023-04-07T15:02:57;6.87;;;4.50;;
13463;SDS011;6804;48.774;9.174;2023-04-07T15:05:28;4.03;;;3.20;;
13463;SDS011;6804;48.774;9.174;2023-04-07T15:07:58;4.87;;;3.13;;
13463;SDS011;6804;48.774;9.174;2023-04-07T15:10:33;4.77;;;2.90;;
13463;SDS011;6804;48.774;9.174;2023-04-07T15:13:02;3.30;;;3.00;;
13463;SDS011;6804;48.774;9.174;2023-04-07T15:15:30;5.07;;;3.33;;
13463;SDS011;6804;48.774;9.174;2023-04-07T15:17:58;6.17;;;2.70;;
13463;SDS011;6804;48.774;9.174;2023-04-07T15:20:26;2.50;;;2.30;;
13463;SDS011;6804;48.774;9.174;2023-04-07T15:22:54;3.83;;;2.40;;
13463;SDS011;6804;48.774;9.174;2023-04-07T15:25:22;4.27;;;2.80;;
13463;SDS011;6804;48.774;9.174;2023-04-07T15:27:49;3.17;;;2.60;;
13463;SDS011;6804;48.774;9.174;2023-04-07T15:30:23;3.97;;;2.50;;
13463;SDS011;6804;48.774;9.174;2023-04-07T15:32:57;4.17;;;2.83;;
13463;SDS011;6804;48.774;9.174;2023-04-07T15:35:25;3.50;;;2.93;;
13463;SDS011;6804;48.774;9.174;2023-04-07T15:37:53;5.37;;;3.50;;